createdAt,value
2022-12-26T00:00:31.799Z,74.58
2022-12-26T00:02:58.395Z,74.55
2022-12-26T00:05:24.914Z,74.63
2022-12-26T00:07:51.393Z,74.27
2022-12-26T00:10:17.903Z,74.64
2022-12-26T00:12:44.467Z,74.37
2022-12-26T00:15:11.336Z,74.25
2022-12-26T00:17:37.914Z,73.88
2022-12-26T00:20:05.204Z,73.76
2022-12-26T00:22:31.696Z,74.07
2022-12-26T00:24:58.156Z,73.90
2022-12-26T00:27:24.597Z,74.26
2022-12-26T00:29:51.116Z,74.41
2022-12-26T00:32:17.565Z,74.59
2022-12-26T00:34:44.101Z,73.82
2022-12-26T00:37:10.637Z,73.78
2022-12-26T00:39:37.123Z,74.20
2022-12-26T00:42:03.759Z,73.64
2022-12-26T00:44:30.264Z,73.83
2022-12-26T00:46:56.890Z,74.24
2022-12-26T00:49:23.545Z,74.08
2022-12-26T00:51:50.039Z,73.83
2022-12-26T00:54:17.743Z,74.14
2022-12-26T00:56:44.221Z,74.04
2022-12-26T00:59:10.730Z,73.96
2022-12-26T01:01:37.392Z,73.47
2022-12-26T01:04:04.779Z,73.52
2022-12-26T01:06:31.363Z,73.61
2022-12-26T01:08:59.427Z,73.69
2022-12-26T01:11:41.117Z,73.70
2022-12-26T01:14:15.222Z,73.43
2022-12-26T01:16:45.271Z,73.69
2022-12-26T01:19:13.626Z,73.85
2022-12-26T01:21:40.893Z,74.16
2022-12-26T01:24:07.467Z,73.90
2022-12-26T01:26:34.038Z,73.41
2022-12-26T01:29:00.491Z,73.63
2022-12-26T01:31:27.012Z,73.41
2022-12-26T01:33:53.486Z,73.25
2022-12-26T01:36:20.141Z,73.44
2022-12-26T01:38:46.692Z,73.53
2022-12-26T01:41:16.639Z,73.81
2022-12-26T01:44:06.789Z,73.15
2022-12-26T01:46:45.751Z,73.61
2022-12-26T01:49:33.926Z,73.50
2022-12-26T01:52:06.875Z,73.98
2022-12-26T01:54:42.572Z,73.43
2022-12-26T01:57:24.463Z,73.33
2022-12-26T01:59:53.320Z,73.78
2022-12-26T02:02:23.229Z,73.69
2022-12-26T02:05:10.463Z,73.58
2022-12-26T02:07:40.527Z,74.20
2022-12-26T02:10:15.586Z,73.94
2022-12-26T02:12:43.008Z,74.17
2022-12-26T02:15:23.749Z,73.86
2022-12-26T02:17:50.189Z,73.51
2022-12-26T02:20:29.636Z,73.38
2022-12-26T02:23:42.787Z,73.37
2022-12-26T02:26:41.866Z,73.04
2022-12-26T02:30:05.632Z,73.73
2022-12-26T02:33:14.527Z,73.68
2022-12-26T02:35:53.039Z,73.72
2022-12-26T02:38:47.482Z,73.82
2022-12-26T02:41:55.129Z,73.57
2022-12-26T02:45:17.830Z,73.42
2022-12-26T02:48:13.601Z,74.05
2022-12-26T02:51:32.670Z,74.18
2022-12-26T02:54:42.324Z,73.99
2022-12-26T02:57:37.608Z,73.97
2022-12-26T03:00:34.969Z,74.61
2022-12-26T03:03:29.525Z,75.11
2022-12-26T03:06:33.385Z,75.33
2022-12-26T03:09:53.821Z,75.70
2022-12-26T03:12:38.545Z,75.43
2022-12-26T03:15:18.060Z,75.23
2022-12-26T03:17:57.225Z,75.07
2022-12-26T03:20:32.300Z,74.90
2022-12-26T03:23:08.044Z,75.51
2022-12-26T03:26:22.221Z,75.14
2022-12-26T03:28:48.736Z,75.79
2022-12-26T03:31:16.610Z,75.60
2022-12-26T03:34:05.518Z,74.94
2022-12-26T03:37:13.620Z,75.49
2022-12-26T03:40:04.686Z,76.32
2022-12-26T03:43:14.007Z,76.49
2022-12-26T03:46:20.367Z,76.15
2022-12-26T03:49:11.600Z,76.08
2022-12-26T03:52:18.127Z,75.62
2022-12-26T03:55:29.271Z,75.42
2022-12-26T03:58:47.918Z,75.07
2022-12-26T04:01:38.234Z,75.69
2022-12-26T04:04:49.790Z,75.73
2022-12-26T04:07:56.102Z,75.73
2022-12-26T04:10:58.306Z,75.68
2022-12-26T04:14:03.783Z,75.46
2022-12-26T04:16:59.633Z,75.24
2022-12-26T04:20:09.188Z,75.51
2022-12-26T04:23:05.905Z,75.23
2022-12-26T04:26:11.452Z,75.51
2022-12-26T04:28:56.780Z,75.30
2022-12-26T04:32:09.834Z,75.19
2022-12-26T04:35:09.168Z,74.93
2022-12-26T04:38:02.227Z,74.85
2022-12-26T04:40:55.452Z,74.74
2022-12-26T04:43:50.443Z,75.42
2022-12-26T04:46:24.720Z,74.65
2022-12-26T04:49:12.963Z,74.88
2022-12-26T04:51:39.821Z,74.98
2022-12-26T04:54:07.165Z,74.48
2022-12-26T04:56:33.953Z,74.88
2022-12-26T04:59:01.072Z,74.91
2022-12-26T05:01:46.270Z,74.34
2022-12-26T05:04:34.534Z,74.82
2022-12-26T05:07:22.816Z,74.97
2022-12-26T05:09:53.168Z,75.14
2022-12-26T05:12:20.354Z,75.32
2022-12-26T05:14:46.815Z,75.17
2022-12-26T05:17:33.018Z,74.86
2022-12-26T05:20:18.203Z,75.09
2022-12-26T05:23:04.974Z,75.02
2022-12-26T05:25:56.441Z,74.91
2022-12-26T05:28:41.619Z,75.35
2022-12-26T05:31:11.229Z,75.05
2022-12-26T05:33:56.556Z,74.66
2022-12-26T05:36:28.749Z,74.99
2022-12-26T05:38:56.148Z,75.13
2022-12-26T05:41:24.014Z,74.81
2022-12-26T05:43:50.661Z,74.88
2022-12-26T05:46:17.211Z,75.09
2022-12-26T05:48:43.844Z,75.11
2022-12-26T05:51:10.329Z,75.05
2022-12-26T05:53:36.811Z,75.10
2022-12-26T05:56:11.849Z,74.98
2022-12-26T05:58:39.131Z,75.35
2022-12-26T06:01:16.173Z,74.92
2022-12-26T06:03:47.516Z,74.88
2022-12-26T06:06:16.022Z,75.11
2022-12-26T06:08:43.274Z,75.10
2022-12-26T06:11:12.871Z,75.27
2022-12-26T06:13:41.138Z,75.44
2022-12-26T06:16:18.498Z,74.91
2022-12-26T06:18:45.228Z,75.06
2022-12-26T06:21:16.814Z,74.70
2022-12-26T06:23:43.672Z,74.87
2022-12-26T06:26:12.505Z,74.71
2022-12-26T06:28:41.729Z,74.54
2022-12-26T06:31:14.354Z,74.84
2022-12-26T06:33:40.977Z,75.38
2022-12-26T06:36:14.821Z,75.03
2022-12-26T06:38:42.252Z,75.36
2022-12-26T06:41:13.996Z,74.78
2022-12-26T06:43:40.887Z,74.97
2022-12-26T06:46:12.762Z,75.15
2022-12-26T06:48:39.808Z,75.23
2022-12-26T06:51:16.481Z,75.60
2022-12-26T06:53:43.529Z,75.64
2022-12-26T06:56:22.812Z,76.01
2022-12-26T06:58:54.727Z,75.79
2022-12-26T07:01:22.853Z,77.12
2022-12-26T07:03:52.550Z,77.24
2022-12-26T07:06:26.899Z,78.57
2022-12-26T07:09:03.261Z,79.54
2022-12-26T07:11:35.164Z,80.81
2022-12-26T07:14:02.338Z,81.32
2022-12-26T07:16:29.080Z,82.49
2022-12-26T07:18:58.303Z,82.01
2022-12-26T07:21:26.512Z,82.61
2022-12-26T07:23:54.828Z,82.52
2022-12-26T07:26:23.598Z,82.16
2022-12-26T07:28:57.140Z,82.63
2022-12-26T07:31:25.413Z,81.97
2022-12-26T07:33:55.864Z,82.29
2022-12-26T07:36:24.941Z,82.88
2022-12-26T07:38:51.543Z,82.25
2022-12-26T07:41:36.865Z,82.57
2022-12-26T07:44:03.822Z,81.62
2022-12-26T07:46:30.633Z,81.80
2022-12-26T07:48:57.321Z,81.95
2022-12-26T07:51:23.948Z,81.44
2022-12-26T07:53:50.602Z,80.79
2022-12-26T07:56:17.180Z,80.70
2022-12-26T07:58:43.852Z,80.15
2022-12-26T08:01:10.471Z,79.68
2022-12-26T08:03:38.190Z,79.60
2022-12-26T08:06:04.829Z,78.81
2022-12-26T08:08:31.330Z,78.92
2022-12-26T08:11:06.841Z,77.92
2022-12-26T08:13:33.864Z,77.99
2022-12-26T08:16:06.994Z,77.50
2022-12-26T08:18:34.049Z,77.24
2022-12-26T08:21:00.610Z,76.95
2022-12-26T08:23:27.842Z,76.42
2022-12-26T08:25:54.699Z,76.28
2022-12-26T08:28:21.362Z,76.46
2022-12-26T08:30:49.701Z,76.21
2022-12-26T08:33:16.639Z,75.81
2022-12-26T08:35:43.930Z,76.10
2022-12-26T08:38:10.518Z,76.24
2022-12-26T08:40:44.953Z,76.51
2022-12-26T08:43:30.185Z,76.76
2022-12-26T08:46:11.638Z,76.73
2022-12-26T08:48:40.438Z,76.40
2022-12-26T08:51:13.854Z,76.15
2022-12-26T08:53:40.778Z,76.62
2022-12-26T08:56:13.754Z,76.14
2022-12-26T08:58:42.041Z,75.97
2022-12-26T09:01:16.523Z,76.27
2022-12-26T09:03:44.464Z,75.93
2022-12-26T09:06:14.293Z,75.72
2022-12-26T09:08:42.220Z,76.01
2022-12-26T09:11:14.201Z,76.03
2022-12-26T09:13:42.938Z,75.94
2022-12-26T09:16:22.711Z,75.69
2022-12-26T09:18:56.088Z,75.79
2022-12-26T09:21:23.667Z,75.66
2022-12-26T09:23:50.936Z,75.71
2022-12-26T09:26:20.164Z,75.74
2022-12-26T09:28:47.817Z,75.78
2022-12-26T09:31:24.437Z,75.58
2022-12-26T09:33:52.450Z,76.51
2022-12-26T09:36:24.951Z,76.45
2022-12-26T09:38:52.918Z,76.33
2022-12-26T09:42:01.607Z,75.73
2022-12-26T09:44:55.506Z,76.48
2022-12-26T09:48:28.392Z,76.40
2022-12-26T09:50:55.049Z,76.19
2022-12-26T09:53:35.908Z,76.02
2022-12-26T09:56:13.954Z,75.55
2022-12-26T09:58:56.563Z,75.68
2022-12-26T10:01:36.144Z,75.49
2022-12-26T10:04:13.373Z,75.93
2022-12-26T10:06:57.415Z,75.55
2022-12-26T10:09:44.066Z,75.57
2022-12-26T10:12:41.638Z,75.44
2022-12-26T10:15:41.748Z,76.82
2022-12-26T10:18:35.715Z,76.83
2022-12-26T10:21:29.336Z,76.70
2022-12-26T10:24:09.164Z,76.17
2022-12-26T10:26:43.769Z,75.99
2022-12-26T10:29:10.170Z,76.01
2022-12-26T10:31:52.476Z,76.20
2022-12-26T10:34:21.177Z,76.24
2022-12-26T10:36:54.849Z,76.01
2022-12-26T10:39:30.478Z,76.02
2022-12-26T10:42:03.745Z,75.32
2022-12-26T10:44:30.268Z,75.38
2022-12-26T10:47:24.791Z,75.07
2022-12-26T10:49:52.333Z,75.39
2022-12-26T10:52:26.255Z,75.20
2022-12-26T10:55:28.081Z,75.25
2022-12-26T10:57:53.663Z,75.17
2022-12-26T11:00:24.959Z,74.81
2022-12-26T11:03:15.629Z,73.51
2022-12-26T11:06:08.147Z,74.27
2022-12-26T11:08:43.170Z,73.88
2022-12-26T11:11:45.639Z,73.11
2022-12-26T11:14:39.671Z,73.44
2022-12-26T11:17:12.685Z,73.12
2022-12-26T11:19:44.000Z,72.49
2022-12-26T11:22:29.050Z,72.12
2022-12-26T11:25:13.706Z,71.58
2022-12-26T11:27:44.406Z,71.98
2022-12-26T11:30:13.773Z,72.13
2022-12-26T11:32:48.460Z,71.54
2022-12-26T11:35:28.359Z,71.46
2022-12-26T11:37:58.122Z,71.57
2022-12-26T11:40:38.136Z,70.31
2022-12-26T11:43:15.539Z,70.87
2022-12-26T11:45:50.062Z,70.74
2022-12-26T11:48:25.792Z,70.70
2022-12-26T11:50:53.874Z,71.23
2022-12-26T11:53:23.557Z,70.69
2022-12-26T11:56:04.741Z,70.83
2022-12-26T11:58:35.433Z,70.59
2022-12-26T12:01:01.798Z,70.99
2022-12-26T12:03:51.131Z,69.33
2022-12-26T12:07:01.011Z,69.88
2022-12-26T12:09:43.230Z,70.11
2022-12-26T12:12:22.573Z,69.64
2022-12-26T12:14:54.796Z,70.06
2022-12-26T12:17:51.771Z,69.62
2022-12-26T12:20:51.984Z,69.27
2022-12-26T12:23:58.720Z,68.66
2022-12-26T12:27:31.082Z,67.11
2022-12-26T12:30:24.319Z,68.56
2022-12-26T12:33:04.580Z,68.81
2022-12-26T12:36:08.383Z,69.35
2022-12-26T12:38:58.089Z,69.09
2022-12-26T12:42:00.629Z,68.22
2022-12-26T12:44:50.370Z,68.59
2022-12-26T12:47:49.953Z,68.72
2022-12-26T12:50:44.042Z,67.84
2022-12-26T12:53:31.349Z,68.09
2022-12-26T12:57:01.628Z,68.71
2022-12-26T12:59:52.647Z,68.94
2022-12-26T13:02:32.700Z,69.05
2022-12-26T13:05:37.097Z,67.95
2022-12-26T13:08:43.103Z,66.78
2022-12-26T13:11:31.643Z,67.53
2022-12-26T13:14:07.375Z,67.39
2022-12-26T13:16:43.539Z,66.65
2022-12-26T13:19:25.413Z,66.44
2022-12-26T13:21:57.479Z,66.81
2022-12-26T13:24:49.690Z,66.71
2022-12-26T13:27:25.689Z,67.26
2022-12-26T13:29:52.616Z,67.04
2022-12-26T13:32:33.354Z,66.10
2022-12-26T13:35:02.888Z,67.20
2022-12-26T13:37:35.221Z,66.47
2022-12-26T13:40:15.169Z,66.43
2022-12-26T13:43:10.722Z,66.58
2022-12-26T13:45:37.271Z,66.43
2022-12-26T13:48:12.669Z,65.28
2022-12-26T13:50:53.415Z,65.82
2022-12-26T13:53:39.913Z,65.57
2022-12-26T13:56:18.262Z,65.63
2022-12-26T13:59:03.262Z,65.21
2022-12-26T14:01:53.696Z,65.71
2022-12-26T14:05:08.959Z,66.57
2022-12-26T14:07:58.830Z,67.33
2022-12-26T14:10:40.077Z,67.37
2022-12-26T14:13:56.618Z,67.37
2022-12-26T14:16:49.077Z,67.55
2022-12-26T14:19:40.032Z,67.43
2022-12-26T14:22:57.385Z,66.17
2022-12-26T14:25:51.162Z,67.26
2022-12-26T14:28:51.090Z,67.68
2022-12-26T14:31:41.991Z,67.60
2022-12-26T14:34:48.264Z,67.42
2022-12-26T14:37:31.551Z,68.29
2022-12-26T14:40:15.313Z,68.53
2022-12-26T14:43:12.640Z,68.26
2022-12-26T14:45:51.028Z,68.43
2022-12-26T14:48:17.557Z,68.59
2022-12-26T14:50:49.172Z,68.40
2022-12-26T14:53:24.788Z,68.89
2022-12-26T14:56:10.273Z,68.58
2022-12-26T14:58:44.319Z,68.24
2022-12-26T15:01:12.714Z,68.81
2022-12-26T15:04:04.102Z,69.38
2022-12-26T15:06:52.523Z,69.29
2022-12-26T15:10:33.634Z,70.49
2022-12-26T15:13:35.608Z,71.64
2022-12-26T15:16:22.596Z,71.64
2022-12-26T15:19:23.393Z,71.52
2022-12-26T15:22:21.698Z,71.42
2022-12-26T15:25:18.889Z,71.39
2022-12-26T15:27:59.151Z,71.08
2022-12-26T15:31:27.892Z,71.22
2022-12-26T15:34:22.129Z,71.38
2022-12-26T15:37:16.152Z,71.32
2022-12-26T15:40:27.352Z,71.42
2022-12-26T15:43:24.659Z,71.87
2022-12-26T15:46:16.114Z,71.62
2022-12-26T15:49:35.784Z,70.87
2022-12-26T15:52:13.019Z,71.62
2022-12-26T15:54:51.304Z,71.34
2022-12-26T15:57:30.744Z,71.36
2022-12-26T16:00:15.938Z,71.41
2022-12-26T16:03:10.202Z,71.18
2022-12-26T16:05:56.593Z,70.79
2022-12-26T16:09:18.888Z,70.44
2022-12-26T16:11:54.039Z,70.96
2022-12-26T16:14:39.202Z,70.67
2022-12-26T16:17:21.220Z,70.52
2022-12-26T16:19:51.858Z,70.67
2022-12-26T16:22:43.615Z,70.68
2022-12-26T16:25:16.978Z,70.56
2022-12-26T16:27:46.922Z,69.74
2022-12-26T16:30:22.329Z,69.99
2022-12-26T16:32:50.438Z,70.67
2022-12-26T16:35:26.705Z,70.39
2022-12-26T16:37:57.559Z,69.79
2022-12-26T16:40:33.790Z,69.66
2022-12-26T16:43:05.873Z,69.37
2022-12-26T16:45:37.367Z,68.96
2022-12-26T16:48:12.152Z,68.09
2022-12-26T16:50:56.496Z,68.77
2022-12-26T16:53:45.313Z,68.50
2022-12-26T16:56:26.786Z,69.65
2022-12-26T16:59:17.826Z,69.67
2022-12-26T17:01:59.339Z,69.62
2022-12-26T17:04:29.938Z,69.92
2022-12-26T17:07:06.539Z,69.63
2022-12-26T17:09:44.830Z,68.71
2022-12-26T17:12:27.024Z,69.05
2022-12-26T17:14:56.694Z,68.86
2022-12-26T17:17:23.118Z,67.94
2022-12-26T17:19:54.428Z,68.49
2022-12-26T17:22:37.308Z,66.35
2022-12-26T17:25:27.850Z,66.75
2022-12-26T17:28:09.937Z,65.41
2022-12-26T17:30:43.273Z,66.03
2022-12-26T17:33:17.705Z,67.64
2022-12-26T17:39:10.806Z,67.91
2022-12-26T17:41:49.002Z,68.03
2022-12-26T17:44:35.471Z,67.59
2022-12-26T17:47:27.003Z,68.21
2022-12-26T17:49:55.732Z,68.46
2022-12-26T17:52:28.696Z,68.05
2022-12-26T17:54:58.551Z,68.24
2022-12-26T17:57:28.519Z,68.31
2022-12-26T17:59:56.089Z,68.17
2022-12-26T18:02:23.680Z,68.49
2022-12-26T18:04:53.855Z,68.00
2022-12-26T18:07:30.879Z,68.14
2022-12-26T18:09:59.305Z,68.01
2022-12-26T18:12:25.877Z,67.52
2022-12-26T18:14:57.528Z,67.04
2022-12-26T18:17:29.492Z,67.87
2022-12-26T18:19:57.659Z,68.00
2022-12-26T18:22:24.136Z,67.78
2022-12-26T18:24:50.628Z,67.73
2022-12-26T18:27:22.873Z,67.23
2022-12-26T18:29:50.252Z,67.26
2022-12-26T18:32:29.523Z,67.03
2022-12-26T18:34:57.076Z,67.43
2022-12-26T18:37:26.538Z,67.15
2022-12-26T18:39:53.429Z,68.19
2022-12-26T18:42:20.210Z,67.89
2022-12-26T18:44:47.039Z,67.87
2022-12-26T18:47:17.906Z,67.68
2022-12-26T18:49:45.958Z,67.72
2022-12-26T18:52:17.903Z,67.03
2022-12-26T18:54:45.423Z,66.66
2022-12-26T18:57:19.324Z,66.25
2022-12-26T18:59:47.994Z,65.04
2022-12-26T19:02:19.376Z,64.49
2022-12-26T19:04:48.409Z,64.88
2022-12-26T19:07:17.402Z,65.70
2022-12-26T19:09:55.801Z,65.51
2022-12-26T19:12:23.845Z,65.65
2022-12-26T19:14:51.176Z,65.28
2022-12-26T19:17:17.945Z,64.82
2022-12-26T19:19:44.656Z,64.65
2022-12-26T19:22:11.709Z,64.91
2022-12-26T19:24:38.233Z,65.50
2022-12-26T19:27:04.940Z,65.43
2022-12-26T19:29:31.566Z,65.43
2022-12-26T19:31:58.149Z,65.72
2022-12-26T19:34:24.621Z,65.72
2022-12-26T19:36:51.124Z,65.23
2022-12-26T19:39:17.728Z,65.53
2022-12-26T19:41:44.268Z,65.89
2022-12-26T19:44:10.855Z,65.50
2022-12-26T19:46:37.342Z,65.35
2022-12-26T19:49:04.125Z,65.00
2022-12-26T19:51:30.611Z,65.34
2022-12-26T19:53:57.107Z,65.37
2022-12-26T19:56:27.877Z,65.78
2022-12-26T19:58:57.013Z,65.75
2022-12-26T20:01:28.510Z,65.53
2022-12-26T20:03:57.988Z,66.08
2022-12-26T20:06:27.616Z,66.18
2022-12-26T20:08:58.587Z,66.12
2022-12-26T20:11:30.684Z,66.14
2022-12-26T20:13:58.921Z,65.86
2022-12-26T20:19:12.869Z,66.70
2022-12-26T20:21:40.694Z,66.36
2022-12-26T20:24:11.351Z,66.09
2022-12-26T20:26:38.386Z,66.59
2022-12-26T20:29:05.197Z,66.59
2022-12-26T20:31:32.994Z,66.50
2022-12-26T20:34:00.182Z,66.18
2022-12-26T20:36:31.411Z,66.70
2022-12-26T20:39:01.370Z,67.24
2022-12-26T20:41:28.962Z,67.65
2022-12-26T20:43:56.232Z,67.22
2022-12-26T20:46:31.988Z,67.06
2022-12-26T20:49:01.823Z,67.14
2022-12-26T20:51:37.364Z,67.23
2022-12-26T20:54:09.347Z,67.39
2022-12-26T20:56:37.384Z,67.59
2022-12-26T20:59:08.387Z,68.01
2022-12-26T21:01:37.449Z,67.83
2022-12-26T21:04:04.334Z,67.63
2022-12-26T21:06:35.904Z,67.95
2022-12-26T21:09:04.625Z,68.14
2022-12-26T21:11:38.181Z,68.42
2022-12-26T21:14:10.398Z,68.74
2022-12-26T21:16:41.890Z,68.34
2022-12-26T21:19:14.976Z,68.16
2022-12-26T21:21:45.701Z,68.27
2022-12-26T21:24:33.990Z,68.10
2022-12-26T21:27:00.746Z,68.23
2022-12-26T21:29:32.557Z,68.61
2022-12-26T21:32:01.462Z,69.25
2022-12-26T21:34:31.525Z,69.10
2022-12-26T21:37:17.329Z,68.92
2022-12-26T21:39:44.250Z,69.29
2022-12-26T21:42:11.245Z,68.66
2022-12-26T21:44:37.971Z,68.51
2022-12-26T21:47:07.826Z,68.55
2022-12-26T21:49:34.991Z,69.21
2022-12-26T21:52:01.612Z,69.06
2022-12-26T21:54:49.311Z,69.29
2022-12-26T21:57:18.052Z,68.91
2022-12-26T21:59:57.394Z,69.40
2022-12-26T22:02:54.112Z,68.67
2022-12-26T22:05:24.527Z,69.01
2022-12-26T22:08:00.398Z,68.95
2022-12-26T22:10:50.159Z,69.34
2022-12-26T22:13:18.647Z,69.67
2022-12-26T22:16:03.793Z,69.56
2022-12-26T22:18:36.133Z,69.53
2022-12-26T22:21:09.143Z,69.28
2022-12-26T22:23:36.994Z,70.00
2022-12-26T22:26:04.712Z,70.05
2022-12-26T22:28:33.591Z,69.82
2022-12-26T22:31:00.860Z,69.90
2022-12-26T22:33:29.063Z,69.85
2022-12-26T22:35:55.814Z,69.96
2022-12-26T22:38:23.449Z,70.05
2022-12-26T22:40:56.152Z,69.60
2022-12-26T22:43:23.691Z,70.00
2022-12-26T22:45:51.311Z,70.07
2022-12-26T22:48:19.069Z,70.25
2022-12-26T22:50:48.849Z,70.22
2022-12-26T22:53:15.336Z,70.68
2022-12-26T22:55:48.719Z,70.04
2022-12-26T22:58:17.409Z,70.01
2022-12-26T23:00:45.824Z,69.77
2022-12-26T23:03:13.152Z,69.85
2022-12-26T23:05:40.736Z,70.17
2022-12-26T23:08:08.391Z,70.29
2022-12-26T23:10:35.680Z,70.36
2022-12-26T23:13:02.823Z,70.28
2022-12-26T23:15:29.827Z,70.32
2022-12-26T23:18:20.771Z,70.79
2022-12-26T23:21:06.507Z,70.54
2022-12-26T23:23:33.409Z,70.17
2022-12-26T23:26:01.227Z,70.32
2022-12-26T23:28:46.879Z,70.62
2022-12-26T23:31:13.896Z,70.84
2022-12-26T23:33:40.768Z,70.87
2022-12-26T23:36:08.021Z,70.51
2022-12-26T23:38:34.496Z,70.51
2022-12-26T23:41:00.983Z,70.36
2022-12-26T23:43:27.508Z,70.49
2022-12-26T23:45:54.040Z,69.93
2022-12-26T23:48:20.537Z,69.52
2022-12-26T23:50:47.149Z,70.09
2022-12-26T23:53:13.642Z,70.87
2022-12-26T23:55:41.716Z,70.94
2022-12-26T23:58:08.772Z,71.13
